sensor_id;sensor_type;location;lat;lon;timestamp;temperature;humidity
44513;DHT22;30219;50.588;9.504;2023-02-18T00:00:24;9.90;99.90
44513;DHT22;30219;50.588;9.504;2023-02-18T00:02:49;9.90;99.90
44513;DHT22;30219;50.588;9.504;2023-02-18T00:05:15;10.00;99.90
44513;DHT22;30219;50.588;9.504;2023-02-18T00:07:40;10.00;99.90
44513;DHT22;30219;50.588;9.504;2023-02-18T00:10:07;10.00;99.90
44513;DHT22;30219;50.588;9.504;2023-02-18T00:12:33;10.00;99.90
44513;DHT22;30219;50.588;9.504;2023-02-18T00:14:58;10.10;99.90
44513;DHT22;30219;50.588;9.504;2023-02-18T00:17:24;10.10;99.90
44513;DHT22;30219;50.588;9.504;2023-02-18T00:19:50;10.20;99.90
44513;DHT22;30219;50.588;9.504;2023-02-18T00:22:15;10.20;99.90
44513;DHT22;30219;50.588;9.504;2023-02-18T00:24:41;10.30;99.90
44513;DHT22;30219;50.588;9.504;2023-02-18T00:27:06;10.20;99.90
44513;DHT22;30219;50.588;9.504;2023-02-18T00:29:32;10.30;99.90
44513;DHT22;30219;50.588;9.504;2023-02-18T00:31:57;10.20;99.90
44513;DHT22;30219;50.588;9.504;2023-02-18T00:34:23;10.20;99.90
44513;DHT22;30219;50.588;9.504;2023-02-18T00:36:48;10.30;99.90
44513;DHT22;30219;50.588;9.504;2023-02-18T00:39:14;10.30;99.90
44513;DHT22;30219;50.588;9.504;2023-02-18T00:41:40;10.30;99.90
44513;DHT22;30219;50.588;9.504;2023-02-18T00:44:05;10.30;99.90
44513;DHT22;30219;50.588;9.504;2023-02-18T00:46:31;10.40;99.90
44513;DHT22;30219;50.588;9.504;2023-02-18T00:48:57;10.40;99.90
44513;DHT22;30219;50.588;9.504;2023-02-18T00:51:22;10.40;99.90
44513;DHT22;30219;50.588;9.504;2023-02-18T00:53:49;10.40;99.90
44513;DHT22;30219;50.588;9.504;2023-02-18T00:56:15;10.30;99.90
44513;DHT22;30219;50.588;9.504;2023-02-18T00:58:40;10.30;99.90
44513;DHT22;30219;50.588;9.504;2023-02-18T01:01:06;10.40;99.90
44513;DHT22;30219;50.588;9.504;2023-02-18T01:03:32;10.30;99.90
44513;DHT22;30219;50.588;9.504;2023-02-18T01:05:57;10.30;99.90
44513;DHT22;30219;50.588;9.504;2023-02-18T01:08:23;10.30;99.90
44513;DHT22;30219;50.588;9.504;2023-02-18T01:10:49;10.30;99.90
44513;DHT22;30219;50.588;9.504;2023-02-18T01:13:16;10.40;99.90
44513;DHT22;30219;50.588;9.504;2023-02-18T01:15:42;10.30;99.90
44513;DHT22;30219;50.588;9.504;2023-02-18T01:18:07;10.30;99.90
44513;DHT22;30219;50.588;9.504;2023-02-18T01:20:36;10.30;99.90
44513;DHT22;30219;50.588;9.504;2023-02-18T01:23:02;10.40;99.90
44513;DHT22;30219;50.588;9.504;2023-02-18T01:25:28;10.30;99.90
44513;DHT22;30219;50.588;9.504;2023-02-18T01:27:53;10.30;99.90
44513;DHT22;30219;50.588;9.504;2023-02-18T01:30:19;10.30;99.90
44513;DHT22;30219;50.588;9.504;2023-02-18T01:32:45;10.30;99.90
44513;DHT22;30219;50.588;9.504;2023-02-18T01:35:14;10.30;99.90
44513;DHT22;30219;50.588;9.504;2023-02-18T01:37:40;10.30;99.90
44513;DHT22;30219;50.588;9.504;2023-02-18T01:40:06;10.30;99.90
44513;DHT22;30219;50.588;9.504;2023-02-18T01:42:32;10.30;99.90
44513;DHT22;30219;50.588;9.504;2023-02-18T01:47:42;10.20;99.90
44513;DHT22;30219;50.588;9.504;2023-02-18T01:50:07;10.20;99.90
44513;DHT22;30219;50.588;9.504;2023-02-18T01:52:33;10.20;99.90
44513;DHT22;30219;50.588;9.504;2023-02-18T01:54:58;10.20;99.90
44513;DHT22;30219;50.588;9.504;2023-02-18T01:57:26;10.30;99.90
44513;DHT22;30219;50.588;9.504;2023-02-18T01:59:54;10.40;99.90
44513;DHT22;30219;50.588;9.504;2023-02-18T02:02:21;10.30;99.90
44513;DHT22;30219;50.588;9.504;2023-02-18T02:04:47;10.40;99.90
44513;DHT22;30219;50.588;9.504;2023-02-18T02:07:14;10.30;99.90
44513;DHT22;30219;50.588;9.504;2023-02-18T02:09:39;10.30;99.90
44513;DHT22;30219;50.588;9.504;2023-02-18T02:15:02;10.40;99.90
44513;DHT22;30219;50.588;9.504;2023-02-18T02:17:39;10.30;99.90
44513;DHT22;30219;50.588;9.504;2023-02-18T02:25:25;10.30;99.90
44513;DHT22;30219;50.588;9.504;2023-02-18T02:36:13;10.30;99.90
44513;DHT22;30219;50.588;9.504;2023-02-18T02:38:47;10.40;99.90
44513;DHT22;30219;50.588;9.504;2023-02-18T02:43:55;10.30;99.90
44513;DHT22;30219;50.588;9.504;2023-02-18T02:46:27;10.30;99.90
44513;DHT22;30219;50.588;9.504;2023-02-18T02:51:31;10.40;99.90
44513;DHT22;30219;50.588;9.504;2023-02-18T02:56:41;10.40;99.90
44513;DHT22;30219;50.588;9.504;2023-02-18T02:59:10;10.40;99.90
44513;DHT22;30219;50.588;9.504;2023-02-18T03:09:16;10.40;99.90
44513;DHT22;30219;50.588;9.504;2023-02-18T03:11:52;10.40;99.90
44513;DHT22;30219;50.588;9.504;2023-02-18T03:14:25;10.40;99.90
44513;DHT22;30219;50.588;9.504;2023-02-18T03:19:29;10.50;99.90
44513;DHT22;30219;50.588;9.504;2023-02-18T03:21:56;10.50;99.90
44513;DHT22;30219;50.588;9.504;2023-02-18T03:24:24;10.50;99.90
44513;DHT22;30219;50.588;9.504;2023-02-18T03:26:52;10.50;99.90
44513;DHT22;30219;50.588;9.504;2023-02-18T03:29:19;10.40;99.90
44513;DHT22;30219;50.588;9.504;2023-02-18T03:31:46;10.40;99.90
44513;DHT22;30219;50.588;9.504;2023-02-18T03:34:15;10.30;99.90
44513;DHT22;30219;50.588;9.504;2023-02-18T03:36:41;10.40;99.90
44513;DHT22;30219;50.588;9.504;2023-02-18T03:39:11;10.40;99.90
44513;DHT22;30219;50.588;9.504;2023-02-18T03:41:38;10.50;99.90
44513;DHT22;30219;50.588;9.504;2023-02-18T03:44:05;10.40;99.90
44513;DHT22;30219;50.588;9.504;2023-02-18T03:46:31;10.40;99.90
44513;DHT22;30219;50.588;9.504;2023-02-18T03:48:56;10.40;99.90
44513;DHT22;30219;50.588;9.504;2023-02-18T03:51:22;10.40;99.90
44513;DHT22;30219;50.588;9.504;2023-02-18T03:53:47;10.40;99.90
44513;DHT22;30219;50.588;9.504;2023-02-18T03:56:13;10.40;99.90
44513;DHT22;30219;50.588;9.504;2023-02-18T03:58:38;10.40;99.90
44513;DHT22;30219;50.588;9.504;2023-02-18T04:01:04;10.30;99.90
44513;DHT22;30219;50.588;9.504;2023-02-18T04:03:30;10.30;99.90
44513;DHT22;30219;50.588;9.504;2023-02-18T04:05:56;10.30;99.90
44513;DHT22;30219;50.588;9.504;2023-02-18T04:08:21;10.30;99.90
44513;DHT22;30219;50.588;9.504;2023-02-18T04:10:46;10.30;99.90
44513;DHT22;30219;50.588;9.504;2023-02-18T04:13:12;10.30;99.90
44513;DHT22;30219;50.588;9.504;2023-02-18T04:15:37;10.30;99.90
44513;DHT22;30219;50.588;9.504;2023-02-18T04:18:03;10.30;99.90
44513;DHT22;30219;50.588;9.504;2023-02-18T04:20:28;10.30;99.90
44513;DHT22;30219;50.588;9.504;2023-02-18T04:22:54;10.30;99.90
44513;DHT22;30219;50.588;9.504;2023-02-18T04:25:20;10.30;99.90
44513;DHT22;30219;50.588;9.504;2023-02-18T04:27:45;10.30;99.90
44513;DHT22;30219;50.588;9.504;2023-02-18T04:30:11;10.30;99.90
44513;DHT22;30219;50.588;9.504;2023-02-18T04:32:36;10.30;99.90
44513;DHT22;30219;50.588;9.504;2023-02-18T04:35:02;10.20;99.90
44513;DHT22;30219;50.588;9.504;2023-02-18T04:37:27;10.20;99.90
44513;DHT22;30219;50.588;9.504;2023-02-18T04:39:53;10.20;99.90
44513;DHT22;30219;50.588;9.504;2023-02-18T04:42:18;10.10;99.90
44513;DHT22;30219;50.588;9.504;2023-02-18T04:44:44;10.10;99.90
44513;DHT22;30219;50.588;9.504;2023-02-18T04:47:09;10.00;99.90
44513;DHT22;30219;50.588;9.504;2023-02-18T04:49:35;9.90;99.90
44513;DHT22;30219;50.588;9.504;2023-02-18T04:52:00;9.90;99.90
44513;DHT22;30219;50.588;9.504;2023-02-18T04:54:26;9.90;99.90
44513;DHT22;30219;50.588;9.504;2023-02-18T04:56:51;9.80;99.90
44513;DHT22;30219;50.588;9.504;2023-02-18T04:59:17;9.80;99.90
44513;DHT22;30219;50.588;9.504;2023-02-18T05:01:42;9.70;99.90
44513;DHT22;30219;50.588;9.504;2023-02-18T05:04:08;9.80;99.90
44513;DHT22;30219;50.588;9.504;2023-02-18T05:06:33;9.80;99.90
44513;DHT22;30219;50.588;9.504;2023-02-18T05:08:58;9.80;99.90
44513;DHT22;30219;50.588;9.504;2023-02-18T05:11:24;9.80;99.90
44513;DHT22;30219;50.588;9.504;2023-02-18T05:13:49;9.80;99.90
44513;DHT22;30219;50.588;9.504;2023-02-18T05:16:15;9.80;99.90
44513;DHT22;30219;50.588;9.504;2023-02-18T05:18:40;9.80;99.90
44513;DHT22;30219;50.588;9.504;2023-02-18T05:21:06;9.80;99.90
44513;DHT22;30219;50.588;9.504;2023-02-18T05:23:31;9.80;99.90
44513;DHT22;30219;50.588;9.504;2023-02-18T05:25:57;9.80;99.90
44513;DHT22;30219;50.588;9.504;2023-02-18T05:28:22;9.80;99.90
44513;DHT22;30219;50.588;9.504;2023-02-18T05:30:48;9.80;99.90
44513;DHT22;30219;50.588;9.504;2023-02-18T05:33:13;9.80;99.90
44513;DHT22;30219;50.588;9.504;2023-02-18T05:35:39;9.80;99.90
44513;DHT22;30219;50.588;9.504;2023-02-18T05:38:04;9.80;99.90
44513;DHT22;30219;50.588;9.504;2023-02-18T05:40:30;9.70;99.90
44513;DHT22;30219;50.588;9.504;2023-02-18T05:42:55;9.70;99.90
44513;DHT22;30219;50.588;9.504;2023-02-18T05:45:21;9.70;99.90
44513;DHT22;30219;50.588;9.504;2023-02-18T05:47:46;9.70;99.90
44513;DHT22;30219;50.588;9.504;2023-02-18T05:50:12;9.70;99.90
44513;DHT22;30219;50.588;9.504;2023-02-18T05:52:37;9.70;99.90
44513;DHT22;30219;50.588;9.504;2023-02-18T05:55:03;9.80;99.90
44513;DHT22;30219;50.588;9.504;2023-02-18T05:57:28;9.70;99.90
44513;DHT22;30219;50.588;9.504;2023-02-18T05:59:54;9.70;99.90
44513;DHT22;30219;50.588;9.504;2023-02-18T06:02:19;9.70;99.90
44513;DHT22;30219;50.588;9.504;2023-02-18T06:04:45;9.70;99.90
44513;DHT22;30219;50.588;9.504;2023-02-18T06:07:10;9.60;99.90
44513;DHT22;30219;50.588;9.504;2023-02-18T06:09:36;9.60;99.90
44513;DHT22;30219;50.588;9.504;2023-02-18T06:12:01;9.60;99.90
44513;DHT22;30219;50.588;9.504;2023-02-18T06:14:27;9.60;99.90
44513;DHT22;30219;50.588;9.504;2023-02-18T06:16:52;9.50;99.90
44513;DHT22;30219;50.588;9.504;2023-02-18T06:19:17;9.50;99.90
44513;DHT22;30219;50.588;9.504;2023-02-18T06:21:43;9.50;99.90
44513;DHT22;30219;50.588;9.504;2023-02-18T06:24:08;9.50;99.90
44513;DHT22;30219;50.588;9.504;2023-02-18T06:26:34;9.50;99.90
44513;DHT22;30219;50.588;9.504;2023-02-18T06:28:59;9.50;99.90
44513;DHT22;30219;50.588;9.504;2023-02-18T06:31:25;9.50;99.90
44513;DHT22;30219;50.588;9.504;2023-02-18T06:33:51;9.50;99.90
44513;DHT22;30219;50.588;9.504;2023-02-18T06:36:16;9.50;99.90
44513;DHT22;30219;50.588;9.504;2023-02-18T06:38:43;9.50;99.90
44513;DHT22;30219;50.588;9.504;2023-02-18T06:41:08;9.50;99.90
44513;DHT22;30219;50.588;9.504;2023-02-18T06:43:35;9.50;99.90
44513;DHT22;30219;50.588;9.504;2023-02-18T06:46:00;9.50;99.90
44513;DHT22;30219;50.588;9.504;2023-02-18T06:48:26;9.50;99.90
44513;DHT22;30219;50.588;9.504;2023-02-18T06:50:51;9.50;99.90
44513;DHT22;30219;50.588;9.504;2023-02-18T06:53:17;9.50;99.90
44513;DHT22;30219;50.588;9.504;2023-02-18T06:55:42;9.50;99.90
44513;DHT22;30219;50.588;9.504;2023-02-18T06:58:09;9.50;99.90
44513;DHT22;30219;50.588;9.504;2023-02-18T07:00:35;9.60;99.90
44513;DHT22;30219;50.588;9.504;2023-02-18T07:03:01;9.60;99.90
44513;DHT22;30219;50.588;9.504;2023-02-18T07:05:26;9.60;99.90
44513;DHT22;30219;50.588;9.504;2023-02-18T07:07:52;9.60;99.90
44513;DHT22;30219;50.588;9.504;2023-02-18T07:10:18;9.60;99.90
44513;DHT22;30219;50.588;9.504;2023-02-18T07:12:43;9.60;99.90
44513;DHT22;30219;50.588;9.504;2023-02-18T07:15:09;9.60;99.90
44513;DHT22;30219;50.588;9.504;2023-02-18T07:17:35;9.70;99.90
44513;DHT22;30219;50.588;9.504;2023-02-18T07:20:00;9.60;99.90
44513;DHT22;30219;50.588;9.504;2023-02-18T07:22:25;9.70;99.90
44513;DHT22;30219;50.588;9.504;2023-02-18T07:24:51;9.70;99.90
44513;DHT22;30219;50.588;9.504;2023-02-18T07:27:17;9.70;99.90
44513;DHT22;30219;50.588;9.504;2023-02-18T07:29:43;9.70;99.90
44513;DHT22;30219;50.588;9.504;2023-02-18T07:32:10;9.70;99.90
44513;DHT22;30219;50.588;9.504;2023-02-18T07:34:36;9.70;99.90
44513;DHT22;30219;50.588;9.504;2023-02-18T07:37:01;9.80;99.90
44513;DHT22;30219;50.588;9.504;2023-02-18T07:39:29;9.80;99.90
44513;DHT22;30219;50.588;9.504;2023-02-18T07:41:54;9.80;99.90
44513;DHT22;30219;50.588;9.504;2023-02-18T07:44:19;9.80;99.90
44513;DHT22;30219;50.588;9.504;2023-02-18T07:46:45;9.70;99.90
44513;DHT22;30219;50.588;9.504;2023-02-18T07:49:10;9.80;99.90
44513;DHT22;30219;50.588;9.504;2023-02-18T07:51:36;9.80;99.90
44513;DHT22;30219;50.588;9.504;2023-02-18T07:54:02;9.70;99.90
44513;DHT22;30219;50.588;9.504;2023-02-18T07:56:28;9.70;99.90
44513;DHT22;30219;50.588;9.504;2023-02-18T07:58:53;9.70;99.90
44513;DHT22;30219;50.588;9.504;2023-02-18T08:01:19;9.70;99.90
44513;DHT22;30219;50.588;9.504;2023-02-18T08:03:44;9.70;99.90
44513;DHT22;30219;50.588;9.504;2023-02-18T08:06:20;9.70;99.90
44513;DHT22;30219;50.588;9.504;2023-02-18T08:08:46;9.70;99.90
44513;DHT22;30219;50.588;9.504;2023-02-18T08:11:11;9.70;99.90
44513;DHT22;30219;50.588;9.504;2023-02-18T08:13:37;9.70;99.90
44513;DHT22;30219;50.588;9.504;2023-02-18T08:16:02;9.70;99.90
44513;DHT22;30219;50.588;9.504;2023-02-18T08:18:28;9.70;99.90
44513;DHT22;30219;50.588;9.504;2023-02-18T08:20:53;9.70;99.90
44513;DHT22;30219;50.588;9.504;2023-02-18T08:23:20;9.70;99.90
44513;DHT22;30219;50.588;9.504;2023-02-18T08:25:49;9.70;99.90
44513;DHT22;30219;50.588;9.504;2023-02-18T08:28:15;9.70;99.90
44513;DHT22;30219;50.588;9.504;2023-02-18T08:30:44;9.60;99.90
44513;DHT22;30219;50.588;9.504;2023-02-18T08:33:10;9.70;99.90
44513;DHT22;30219;50.588;9.504;2023-02-18T08:35:36;9.70;99.90
44513;DHT22;30219;50.588;9.504;2023-02-18T08:38:01;9.60;99.90
44513;DHT22;30219;50.588;9.504;2023-02-18T08:40:26;9.60;99.90
44513;DHT22;30219;50.588;9.504;2023-02-18T08:42:52;9.60;99.90
44513;DHT22;30219;50.588;9.504;2023-02-18T08:45:17;9.60;99.90
44513;DHT22;30219;50.588;9.504;2023-02-18T08:47:43;9.60;99.90
44513;DHT22;30219;50.588;9.504;2023-02-18T08:50:08;9.60;99.90
44513;DHT22;30219;50.588;9.504;2023-02-18T08:52:34;9.60;99.90
44513;DHT22;30219;50.588;9.504;2023-02-18T08:54:59;9.50;99.90
44513;DHT22;30219;50.588;9.504;2023-02-18T08:57:26;9.50;99.90
44513;DHT22;30219;50.588;9.504;2023-02-18T08:59:51;9.50;99.90
44513;DHT22;30219;50.588;9.504;2023-02-18T09:02:17;9.50;99.90
44513;DHT22;30219;50.588;9.504;2023-02-18T09:04:42;9.50;99.90
44513;DHT22;30219;50.588;9.504;2023-02-18T09:07:08;9.40;99.90
44513;DHT22;30219;50.588;9.504;2023-02-18T09:09:33;9.50;99.90
44513;DHT22;30219;50.588;9.504;2023-02-18T09:11:59;9.50;99.90
44513;DHT22;30219;50.588;9.504;2023-02-18T09:14:24;9.50;99.90
44513;DHT22;30219;50.588;9.504;2023-02-18T09:16:50;9.50;99.90
44513;DHT22;30219;50.588;9.504;2023-02-18T09:19:16;9.40;99.90
44513;DHT22;30219;50.588;9.504;2023-02-18T09:21:41;9.40;99.90
44513;DHT22;30219;50.588;9.504;2023-02-18T09:24:07;9.40;99.90
44513;DHT22;30219;50.588;9.504;2023-02-18T09:26:33;9.40;99.90
44513;DHT22;30219;50.588;9.504;2023-02-18T09:28:59;9.40;99.90
44513;DHT22;30219;50.588;9.504;2023-02-18T09:31:25;9.30;99.90
44513;DHT22;30219;50.588;9.504;2023-02-18T09:33:52;9.40;99.90
44513;DHT22;30219;50.588;9.504;2023-02-18T09:36:18;9.30;99.90
44513;DHT22;30219;50.588;9.504;2023-02-18T09:38:44;9.30;99.90
44513;DHT22;30219;50.588;9.504;2023-02-18T09:43:52;9.30;99.90
44513;DHT22;30219;50.588;9.504;2023-02-18T09:48:46;9.40;99.90
44513;DHT22;30219;50.588;9.504;2023-02-18T09:51:13;9.40;99.90
44513;DHT22;30219;50.588;9.504;2023-02-18T09:53:39;9.40;99.90
44513;DHT22;30219;50.588;9.504;2023-02-18T09:56:05;9.50;99.90
44513;DHT22;30219;50.588;9.504;2023-02-18T09:58:31;9.40;99.90
44513;DHT22;30219;50.588;9.504;2023-02-18T10:01:19;9.40;99.90
44513;DHT22;30219;50.588;9.504;2023-02-18T10:03:46;9.40;99.90
44513;DHT22;30219;50.588;9.504;2023-02-18T10:06:15;9.40;99.90
44513;DHT22;30219;50.588;9.504;2023-02-18T10:08:43;9.40;99.90
44513;DHT22;30219;50.588;9.504;2023-02-18T10:11:14;9.40;99.90
44513;DHT22;30219;50.588;9.504;2023-02-18T10:13:41;9.40;99.90
44513;DHT22;30219;50.588;9.504;2023-02-18T10:16:07;9.40;99.90
44513;DHT22;30219;50.588;9.504;2023-02-18T10:18:34;9.40;99.90
44513;DHT22;30219;50.588;9.504;2023-02-18T10:21:14;9.40;99.90
44513;DHT22;30219;50.588;9.504;2023-02-18T10:23:52;9.50;99.90
44513;DHT22;30219;50.588;9.504;2023-02-18T10:26:19;9.50;99.90
44513;DHT22;30219;50.588;9.504;2023-02-18T10:28:45;9.50;99.90
44513;DHT22;30219;50.588;9.504;2023-02-18T10:31:14;9.50;99.90
44513;DHT22;30219;50.588;9.504;2023-02-18T10:33:44;9.50;99.90
44513;DHT22;30219;50.588;9.504;2023-02-18T10:36:33;9.60;99.90
44513;DHT22;30219;50.588;9.504;2023-02-18T10:39:12;9.60;99.90
44513;DHT22;30219;50.588;9.504;2023-02-18T10:52:08;9.60;99.90
44513;DHT22;30219;50.588;9.504;2023-02-18T10:54:52;9.60;99.90
44513;DHT22;30219;50.588;9.504;2023-02-18T10:57:22;9.60;99.90
44513;DHT22;30219;50.588;9.504;2023-02-18T11:02:19;9.70;99.90
44513;DHT22;30219;50.588;9.504;2023-02-18T11:04:45;9.80;99.90
44513;DHT22;30219;50.588;9.504;2023-02-18T11:07:14;9.80;99.90
44513;DHT22;30219;50.588;9.504;2023-02-18T11:09:48;9.80;99.90
44513;DHT22;30219;50.588;9.504;2023-02-18T11:12:38;9.70;99.90
44513;DHT22;30219;50.588;9.504;2023-02-18T11:17:34;9.70;99.90
44513;DHT22;30219;50.588;9.504;2023-02-18T11:20:07;9.80;99.90
44513;DHT22;30219;50.588;9.504;2023-02-18T11:22:44;9.80;99.90
44513;DHT22;30219;50.588;9.504;2023-02-18T11:25:18;9.80;99.90
44513;DHT22;30219;50.588;9.504;2023-02-18T11:27:44;9.80;99.90
44513;DHT22;30219;50.588;9.504;2023-02-18T11:30:24;9.90;99.90
44513;DHT22;30219;50.588;9.504;2023-02-18T11:32:52;9.80;99.90
44513;DHT22;30219;50.588;9.504;2023-02-18T11:35:24;9.80;99.90
44513;DHT22;30219;50.588;9.504;2023-02-18T11:37:50;9.80;99.90
44513;DHT22;30219;50.588;9.504;2023-02-18T11:40:27;9.80;99.90
44513;DHT22;30219;50.588;9.504;2023-02-18T11:43:13;9.70;99.90
44513;DHT22;30219;50.588;9.504;2023-02-18T11:45:39;9.80;99.90
44513;DHT22;30219;50.588;9.504;2023-02-18T11:48:17;9.80;99.90
44513;DHT22;30219;50.588;9.504;2023-02-18T11:50:49;9.80;99.90
44513;DHT22;30219;50.588;9.504;2023-02-18T11:53:52;9.80;99.90
44513;DHT22;30219;50.588;9.504;2023-02-18T11:56:16;9.90;99.90
44513;DHT22;30219;50.588;9.504;2023-02-18T11:58:42;10.00;99.90
44513;DHT22;30219;50.588;9.504;2023-02-18T12:01:13;10.00;99.90
44513;DHT22;30219;50.588;9.504;2023-02-18T12:03:43;10.00;99.90
44513;DHT22;30219;50.588;9.504;2023-02-18T12:06:13;10.00;99.90
44513;DHT22;30219;50.588;9.504;2023-02-18T12:08:48;10.00;99.90
44513;DHT22;30219;50.588;9.504;2023-02-18T12:11:15;10.00;99.90
44513;DHT22;30219;50.588;9.504;2023-02-18T12:13:52;10.00;99.90
44513;DHT22;30219;50.588;9.504;2023-02-18T12:19:22;10.10;99.90
44513;DHT22;30219;50.588;9.504;2023-02-18T12:27:25;9.90;99.90
44513;DHT22;30219;50.588;9.504;2023-02-18T12:30:00;10.00;99.90
44513;DHT22;30219;50.588;9.504;2023-02-18T12:32:31;10.00;99.90
44513;DHT22;30219;50.588;9.504;2023-02-18T12:35:13;10.10;99.90
44513;DHT22;30219;50.588;9.504;2023-02-18T12:40:39;9.90;99.90
44513;DHT22;30219;50.588;9.504;2023-02-18T12:43:15;9.80;99.90
44513;DHT22;30219;50.588;9.504;2023-02-18T12:51:02;9.60;99.90
44513;DHT22;30219;50.588;9.504;2023-02-18T12:53:37;9.60;99.90
44513;DHT22;30219;50.588;9.504;2023-02-18T13:03:52;9.70;99.90
44513;DHT22;30219;50.588;9.504;2023-02-18T13:06:42;9.70;99.90
44513;DHT22;30219;50.588;9.504;2023-02-18T13:11:57;9.80;99.90
44513;DHT22;30219;50.588;9.504;2023-02-18T13:14:28;9.90;99.90
44513;DHT22;30219;50.588;9.504;2023-02-18T13:16:56;9.90;99.90
44513;DHT22;30219;50.588;9.504;2023-02-18T13:19:28;9.80;99.90
44513;DHT22;30219;50.588;9.504;2023-02-18T13:21:55;9.80;99.90
44513;DHT22;30219;50.588;9.504;2023-02-18T13:24:33;9.80;99.90
44513;DHT22;30219;50.588;9.504;2023-02-18T13:27:02;9.80;99.90
44513;DHT22;30219;50.588;9.504;2023-02-18T13:29:35;9.80;99.90
44513;DHT22;30219;50.588;9.504;2023-02-18T13:32:37;9.80;99.90
44513;DHT22;30219;50.588;9.504;2023-02-18T13:35:15;9.80;99.90
44513;DHT22;30219;50.588;9.504;2023-02-18T13:37:54;9.80;99.90
44513;DHT22;30219;50.588;9.504;2023-02-18T13:40:25;9.80;99.90
44513;DHT22;30219;50.588;9.504;2023-02-18T13:42:54;9.80;99.90
44513;DHT22;30219;50.588;9.504;2023-02-18T13:45:24;9.70;99.90
44513;DHT22;30219;50.588;9.504;2023-02-18T13:47:50;9.60;99.90
44513;DHT22;30219;50.588;9.504;2023-02-18T13:58:00;9.80;99.90
44513;DHT22;30219;50.588;9.504;2023-02-18T14:00:33;9.80;99.90
44513;DHT22;30219;50.588;9.504;2023-02-18T14:03:01;9.80;99.90
44513;DHT22;30219;50.588;9.504;2023-02-18T14:05:39;9.90;99.90
44513;DHT22;30219;50.588;9.504;2023-02-18T14:08:29;9.80;99.90
44513;DHT22;30219;50.588;9.504;2023-02-18T14:11:22;9.80;99.90
44513;DHT22;30219;50.588;9.504;2023-02-18T14:16:06;9.80;99.90
44513;DHT22;30219;50.588;9.504;2023-02-18T14:18:33;9.80;99.90
44513;DHT22;30219;50.588;9.504;2023-02-18T14:21:04;9.80;99.90
44513;DHT22;30219;50.588;9.504;2023-02-18T14:31:02;9.80;99.90
44513;DHT22;30219;50.588;9.504;2023-02-18T14:33:33;9.80;99.90
44513;DHT22;30219;50.588;9.504;2023-02-18T14:36:05;9.70;99.90
44513;DHT22;30219;50.588;9.504;2023-02-18T14:38:39;9.80;99.90
44513;DHT22;30219;50.588;9.504;2023-02-18T14:46:44;9.70;99.90
44513;DHT22;30219;50.588;9.504;2023-02-18T14:49:15;9.80;99.90
44513;DHT22;30219;50.588;9.504;2023-02-18T14:51:44;9.70;99.90
44513;DHT22;30219;50.588;9.504;2023-02-18T14:54:16;9.80;99.90
44513;DHT22;30219;50.588;9.504;2023-02-18T14:56:59;9.80;99.90
44513;DHT22;30219;50.588;9.504;2023-02-18T14:59:27;9.70;99.90
44513;DHT22;30219;50.588;9.504;2023-02-18T15:01:54;9.70;99.90
44513;DHT22;30219;50.588;9.504;2023-02-18T15:04:20;9.70;99.90
44513;DHT22;30219;50.588;9.504;2023-02-18T15:06:45;9.70;99.90
44513;DHT22;30219;50.588;9.504;2023-02-18T15:09:12;9.60;99.90
44513;DHT22;30219;50.588;9.504;2023-02-18T15:11:38;9.70;99.90
44513;DHT22;30219;50.588;9.504;2023-02-18T15:14:09;9.60;99.90
44513;DHT22;30219;50.588;9.504;2023-02-18T15:16:38;9.70;99.90
44513;DHT22;30219;50.588;9.504;2023-02-18T15:19:05;9.70;99.90
44513;DHT22;30219;50.588;9.504;2023-02-18T15:21:32;9.60;99.90
44513;DHT22;30219;50.588;9.504;2023-02-18T15:24:07;9.70;99.90
44513;DHT22;30219;50.588;9.504;2023-02-18T15:26:33;9.60;99.90
44513;DHT22;30219;50.588;9.504;2023-02-18T15:29:00;9.70;99.90
44513;DHT22;30219;50.588;9.504;2023-02-18T15:31:27;9.70;99.90
44513;DHT22;30219;50.588;9.504;2023-02-18T15:33:53;9.70;99.90
44513;DHT22;30219;50.588;9.504;2023-02-18T15:36:18;9.80;99.90
44513;DHT22;30219;50.588;9.504;2023-02-18T15:38:44;9.80;99.90
44513;DHT22;30219;50.588;9.504;2023-02-18T15:41:13;9.80;99.90
44513;DHT22;30219;50.588;9.504;2023-02-18T15:43:49;9.80;99.90
44513;DHT22;30219;50.588;9.504;2023-02-18T15:46:15;9.70;99.90
44513;DHT22;30219;50.588;9.504;2023-02-18T15:48:44;9.70;99.90
44513;DHT22;30219;50.588;9.504;2023-02-18T15:51:13;9.70;99.90
44513;DHT22;30219;50.588;9.504;2023-02-18T15:53:39;9.70;99.90
44513;DHT22;30219;50.588;9.504;2023-02-18T15:56:08;9.70;99.90
44513;DHT22;30219;50.588;9.504;2023-02-18T15:58:34;9.80;99.90
44513;DHT22;30219;50.588;9.504;2023-02-18T16:01:01;9.80;99.90
44513;DHT22;30219;50.588;9.504;2023-02-18T16:03:28;9.70;99.90
44513;DHT22;30219;50.588;9.504;2023-02-18T16:06:08;9.80;99.90
44513;DHT22;30219;50.588;9.504;2023-02-18T16:08:34;9.80;99.90
44513;DHT22;30219;50.588;9.504;2023-02-18T16:11:00;9.80;99.90
44513;DHT22;30219;50.588;9.504;2023-02-18T16:13:27;9.80;99.90
44513;DHT22;30219;50.588;9.504;2023-02-18T16:15:55;9.80;99.90
44513;DHT22;30219;50.588;9.504;2023-02-18T16:20:52;9.80;99.90
44513;DHT22;30219;50.588;9.504;2023-02-18T16:23:24;9.80;99.90
44513;DHT22;30219;50.588;9.504;2023-02-18T16:25:50;9.70;99.90
44513;DHT22;30219;50.588;9.504;2023-02-18T16:28:25;9.70;99.90
44513;DHT22;30219;50.588;9.504;2023-02-18T16:30:54;9.80;99.90
44513;DHT22;30219;50.588;9.504;2023-02-18T16:33:20;9.80;99.90
44513;DHT22;30219;50.588;9.504;2023-02-18T16:35:45;9.80;99.90
44513;DHT22;30219;50.588;9.504;2023-02-18T16:38:15;9.70;99.90
44513;DHT22;30219;50.588;9.504;2023-02-18T16:40:41;9.70;99.90
44513;DHT22;30219;50.588;9.504;2023-02-18T16:43:17;9.80;99.90
44513;DHT22;30219;50.588;9.504;2023-02-18T16:45:54;9.80;99.90
44513;DHT22;30219;50.588;9.504;2023-02-18T16:48:25;9.80;99.90
44513;DHT22;30219;50.588;9.504;2023-02-18T16:50:52;9.70;99.90
44513;DHT22;30219;50.588;9.504;2023-02-18T16:53:18;9.70;99.90
44513;DHT22;30219;50.588;9.504;2023-02-18T16:55:44;9.70;99.90
44513;DHT22;30219;50.588;9.504;2023-02-18T16:58:10;9.70;99.90
44513;DHT22;30219;50.588;9.504;2023-02-18T17:00:35;9.70;99.90
44513;DHT22;30219;50.588;9.504;2023-02-18T17:03:01;9.60;99.90
44513;DHT22;30219;50.588;9.504;2023-02-18T17:05:28;9.50;99.90
44513;DHT22;30219;50.588;9.504;2023-02-18T17:07:54;9.50;99.90
44513;DHT22;30219;50.588;9.504;2023-02-18T17:10:20;9.40;99.90
44513;DHT22;30219;50.588;9.504;2023-02-18T17:12:46;9.40;99.90
44513;DHT22;30219;50.588;9.504;2023-02-18T17:17:40;9.40;99.90
44513;DHT22;30219;50.588;9.504;2023-02-18T17:20:05;9.40;99.90
44513;DHT22;30219;50.588;9.504;2023-02-18T17:22:31;9.30;99.90
44513;DHT22;30219;50.588;9.504;2023-02-18T17:24:56;9.30;99.90
44513;DHT22;30219;50.588;9.504;2023-02-18T17:27:22;9.30;99.90
44513;DHT22;30219;50.588;9.504;2023-02-18T17:29:47;9.30;99.90
44513;DHT22;30219;50.588;9.504;2023-02-18T17:32:13;9.30;99.90
44513;DHT22;30219;50.588;9.504;2023-02-18T17:34:38;9.30;99.90
44513;DHT22;30219;50.588;9.504;2023-02-18T17:37:05;9.30;99.90
44513;DHT22;30219;50.588;9.504;2023-02-18T17:39:30;9.20;99.90